sensor_id;sensor_type;location;lat;lon;timestamp;P1;durP1;ratioP1;P2;durP2;ratioP2
19735;SDS011;32064;49.310;8.646;2023-12-14T00:01:27;1.60;;;1.30;;
19735;SDS011;32064;49.310;8.646;2023-12-14T00:03:53;2.40;;;1.80;;
19735;SDS011;32064;49.310;8.646;2023-12-14T00:06:18;2.77;;;2.10;;
19735;SDS011;32064;49.310;8.646;2023-12-14T00:08:43;2.03;;;1.80;;
19735;SDS011;32064;49.310;8.646;2023-12-14T00:11:10;2.00;;;1.60;;
19735;SDS011;32064;49.310;8.646;2023-12-14T00:13:36;2.37;;;2.10;;
19735;SDS011;32064;49.310;8.646;2023-12-14T00:16:02;2.03;;;1.83;;
19735;SDS011;32064;49.310;8.646;2023-12-14T00:18:28;3.40;;;2.03;;
19735;SDS011;32064;49.310;8.646;2023-12-14T00:20:53;1.70;;;1.60;;
19735;SDS011;32064;49.310;8.646;2023-12-14T00:23:22;1.80;;;1.70;;
19735;SDS011;32064;49.310;8.646;2023-12-14T00:25:48;4.93;;;1.67;;
19735;SDS011;32064;49.310;8.646;2023-12-14T00:28:14;1.77;;;1.67;;
19735;SDS011;32064;49.310;8.646;2023-12-14T00:30:39;3.80;;;1.63;;
19735;SDS011;32064;49.310;8.646;2023-12-14T00:33:05;1.63;;;1.50;;
19735;SDS011;32064;49.310;8.646;2023-12-14T00:35:30;2.23;;;2.03;;
19735;SDS011;32064;49.310;8.646;2023-12-14T00:37:56;2.13;;;1.93;;
19735;SDS011;32064;49.310;8.646;2023-12-14T00:40:21;2.30;;;2.10;;
19735;SDS011;32064;49.310;8.646;2023-12-14T00:42:47;2.73;;;2.17;;
19735;SDS011;32064;49.310;8.646;2023-12-14T00:45:12;3.03;;;1.87;;
19735;SDS011;32064;49.310;8.646;2023-12-14T00:47:38;2.23;;;2.00;;
19735;SDS011;32064;49.310;8.646;2023-12-14T00:50:03;2.50;;;2.30;;
19735;SDS011;32064;49.310;8.646;2023-12-14T00:52:29;2.53;;;2.20;;
19735;SDS011;32064;49.310;8.646;2023-12-14T00:54:55;2.17;;;1.97;;
19735;SDS011;32064;49.310;8.646;2023-12-14T00:57:20;2.10;;;1.87;;
19735;SDS011;32064;49.310;8.646;2023-12-14T00:59:45;4.37;;;2.10;;
19735;SDS011;32064;49.310;8.646;2023-12-14T01:02:11;3.20;;;2.37;;
19735;SDS011;32064;49.310;8.646;2023-12-14T01:04:37;3.23;;;1.90;;
19735;SDS011;32064;49.310;8.646;2023-12-14T01:07:02;3.07;;;2.30;;
19735;SDS011;32064;49.310;8.646;2023-12-14T01:09:28;2.83;;;2.07;;
19735;SDS011;32064;49.310;8.646;2023-12-14T01:11:54;6.17;;;2.53;;
19735;SDS011;32064;49.310;8.646;2023-12-14T01:14:19;4.60;;;3.30;;
19735;SDS011;32064;49.310;8.646;2023-12-14T01:16:45;3.00;;;2.27;;
19735;SDS011;32064;49.310;8.646;2023-12-14T01:19:10;2.30;;;2.10;;
19735;SDS011;32064;49.310;8.646;2023-12-14T01:21:35;1.90;;;1.63;;
19735;SDS011;32064;49.310;8.646;2023-12-14T01:24:01;2.50;;;2.30;;
19735;SDS011;32064;49.310;8.646;2023-12-14T01:26:27;1.70;;;1.57;;
19735;SDS011;32064;49.310;8.646;2023-12-14T01:28:52;2.70;;;1.97;;
19735;SDS011;32064;49.310;8.646;2023-12-14T01:31:18;2.70;;;2.27;;
19735;SDS011;32064;49.310;8.646;2023-12-14T01:33:44;9.60;;;2.50;;
19735;SDS011;32064;49.310;8.646;2023-12-14T01:36:11;3.87;;;2.60;;
19735;SDS011;32064;49.310;8.646;2023-12-14T01:38:36;2.27;;;2.07;;
19735;SDS011;32064;49.310;8.646;2023-12-14T01:41:02;3.33;;;2.17;;
19735;SDS011;32064;49.310;8.646;2023-12-14T01:43:27;2.57;;;2.20;;
19735;SDS011;32064;49.310;8.646;2023-12-14T01:45:53;2.93;;;2.00;;
19735;SDS011;32064;49.310;8.646;2023-12-14T01:48:18;2.50;;;1.80;;
19735;SDS011;32064;49.310;8.646;2023-12-14T01:50:43;2.70;;;2.47;;
19735;SDS011;32064;49.310;8.646;2023-12-14T01:53:09;2.00;;;1.80;;
19735;SDS011;32064;49.310;8.646;2023-12-14T01:55:34;4.17;;;2.27;;
19735;SDS011;32064;49.310;8.646;2023-12-14T01:58:00;4.33;;;2.13;;
19735;SDS011;32064;49.310;8.646;2023-12-14T02:00:43;4.40;;;2.00;;
19735;SDS011;32064;49.310;8.646;2023-12-14T02:03:09;2.30;;;1.97;;
19735;SDS011;32064;49.310;8.646;2023-12-14T02:05:36;1.90;;;1.73;;
19735;SDS011;32064;49.310;8.646;2023-12-14T02:08:01;2.27;;;1.87;;
19735;SDS011;32064;49.310;8.646;2023-12-14T02:10:27;2.57;;;2.37;;
19735;SDS011;32064;49.310;8.646;2023-12-14T02:12:52;2.33;;;1.80;;
19735;SDS011;32064;49.310;8.646;2023-12-14T02:15:17;1.80;;;1.70;;
19735;SDS011;32064;49.310;8.646;2023-12-14T02:17:43;3.10;;;2.30;;
19735;SDS011;32064;49.310;8.646;2023-12-14T02:20:08;3.27;;;2.13;;
19735;SDS011;32064;49.310;8.646;2023-12-14T02:22:36;2.20;;;2.00;;
19735;SDS011;32064;49.310;8.646;2023-12-14T02:25:14;1.70;;;1.60;;
19735;SDS011;32064;49.310;8.646;2023-12-14T02:27:39;2.63;;;2.07;;
19735;SDS011;32064;49.310;8.646;2023-12-14T02:30:05;2.33;;;2.13;;
19735;SDS011;32064;49.310;8.646;2023-12-14T02:32:31;2.83;;;2.20;;
19735;SDS011;32064;49.310;8.646;2023-12-14T02:34:56;2.27;;;2.07;;
19735;SDS011;32064;49.310;8.646;2023-12-14T02:37:21;2.57;;;2.37;;
19735;SDS011;32064;49.310;8.646;2023-12-14T02:39:47;2.70;;;2.37;;
19735;SDS011;32064;49.310;8.646;2023-12-14T02:42:12;2.40;;;2.17;;
19735;SDS011;32064;49.310;8.646;2023-12-14T02:44:37;2.20;;;1.87;;
19735;SDS011;32064;49.310;8.646;2023-12-14T02:47:03;2.70;;;2.50;;
19735;SDS011;32064;49.310;8.646;2023-12-14T02:49:28;2.37;;;2.17;;
19735;SDS011;32064;49.310;8.646;2023-12-14T02:51:54;1.77;;;1.67;;
19735;SDS011;32064;49.310;8.646;2023-12-14T02:54:19;2.73;;;2.53;;
19735;SDS011;32064;49.310;8.646;2023-12-14T02:56:44;2.97;;;2.67;;
19735;SDS011;32064;49.310;8.646;2023-12-14T02:59:10;2.53;;;2.33;;
19735;SDS011;32064;49.310;8.646;2023-12-14T03:01:35;3.37;;;2.53;;
19735;SDS011;32064;49.310;8.646;2023-12-14T03:04:01;2.43;;;1.80;;
19735;SDS011;32064;49.310;8.646;2023-12-14T03:06:26;2.47;;;2.28;;
19735;SDS011;32064;49.310;8.646;2023-12-14T03:08:51;2.17;;;1.97;;
19735;SDS011;32064;49.310;8.646;2023-12-14T03:11:23;3.13;;;2.03;;
19735;SDS011;32064;49.310;8.646;2023-12-14T03:13:50;3.00;;;2.60;;
19735;SDS011;32064;49.310;8.646;2023-12-14T03:16:15;3.67;;;2.83;;
19735;SDS011;32064;49.310;8.646;2023-12-14T03:18:42;7.00;;;2.40;;
19735;SDS011;32064;49.310;8.646;2023-12-14T03:21:08;2.97;;;2.37;;
19735;SDS011;32064;49.310;8.646;2023-12-14T03:23:34;6.40;;;2.50;;
19735;SDS011;32064;49.310;8.646;2023-12-14T03:25:59;2.77;;;2.57;;
19735;SDS011;32064;49.310;8.646;2023-12-14T03:28:26;2.40;;;2.20;;
19735;SDS011;32064;49.310;8.646;2023-12-14T03:30:52;3.63;;;2.60;;
19735;SDS011;32064;49.310;8.646;2023-12-14T03:33:18;4.47;;;2.87;;
19735;SDS011;32064;49.310;8.646;2023-12-14T03:35:43;3.60;;;2.77;;
19735;SDS011;32064;49.310;8.646;2023-12-14T03:38:09;3.73;;;3.27;;
19735;SDS011;32064;49.310;8.646;2023-12-14T03:40:35;3.13;;;2.90;;
19735;SDS011;32064;49.310;8.646;2023-12-14T03:43:01;3.10;;;2.70;;
19735;SDS011;32064;49.310;8.646;2023-12-14T03:45:28;3.00;;;2.53;;
19735;SDS011;32064;49.310;8.646;2023-12-14T03:47:53;3.10;;;2.80;;
19735;SDS011;32064;49.310;8.646;2023-12-14T03:50:19;3.73;;;2.67;;
19735;SDS011;32064;49.310;8.646;2023-12-14T03:52:44;2.93;;;2.63;;
19735;SDS011;32064;49.310;8.646;2023-12-14T03:55:10;3.33;;;2.13;;
19735;SDS011;32064;49.310;8.646;2023-12-14T03:57:35;4.53;;;2.37;;
19735;SDS011;32064;49.310;8.646;2023-12-14T04:00:00;3.20;;;2.57;;
19735;SDS011;32064;49.310;8.646;2023-12-14T04:02:26;2.30;;;2.10;;
19735;SDS011;32064;49.310;8.646;2023-12-14T04:04:51;2.40;;;2.20;;
19735;SDS011;32064;49.310;8.646;2023-12-14T04:07:17;3.07;;;2.80;;
19735;SDS011;32064;49.310;8.646;2023-12-14T04:09:43;2.97;;;2.50;;
19735;SDS011;32064;49.310;8.646;2023-12-14T04:12:10;2.33;;;2.13;;
19735;SDS011;32064;49.310;8.646;2023-12-14T04:14:35;2.43;;;2.27;;
19735;SDS011;32064;49.310;8.646;2023-12-14T04:17:01;3.50;;;2.30;;
19735;SDS011;32064;49.310;8.646;2023-12-14T04:19:26;3.00;;;2.50;;
19735;SDS011;32064;49.310;8.646;2023-12-14T04:21:52;2.90;;;2.57;;
19735;SDS011;32064;49.310;8.646;2023-12-14T04:24:17;3.30;;;2.47;;
19735;SDS011;32064;49.310;8.646;2023-12-14T04:26:42;3.33;;;2.33;;
19735;SDS011;32064;49.310;8.646;2023-12-14T04:29:08;3.03;;;2.73;;
19735;SDS011;32064;49.310;8.646;2023-12-14T04:31:33;3.13;;;2.93;;
19735;SDS011;32064;49.310;8.646;2023-12-14T04:33:59;3.90;;;3.20;;
19735;SDS011;32064;49.310;8.646;2023-12-14T04:36:24;2.67;;;2.47;;
19735;SDS011;32064;49.310;8.646;2023-12-14T04:38:50;3.07;;;2.53;;
19735;SDS011;32064;49.310;8.646;2023-12-14T04:41:15;4.47;;;2.17;;
19735;SDS011;32064;49.310;8.646;2023-12-14T04:43:40;5.37;;;3.60;;
19735;SDS011;32064;49.310;8.646;2023-12-14T04:46:06;2.70;;;2.33;;
19735;SDS011;32064;49.310;8.646;2023-12-14T04:48:31;3.53;;;3.13;;
19735;SDS011;32064;49.310;8.646;2023-12-14T04:50:57;2.97;;;2.67;;
19735;SDS011;32064;49.310;8.646;2023-12-14T04:53:22;2.97;;;2.50;;
19735;SDS011;32064;49.310;8.646;2023-12-14T04:55:48;7.63;;;3.53;;
19735;SDS011;32064;49.310;8.646;2023-12-14T04:58:13;4.73;;;3.30;;
19735;SDS011;32064;49.310;8.646;2023-12-14T05:00:39;3.60;;;3.10;;
19735;SDS011;32064;49.310;8.646;2023-12-14T05:03:04;4.73;;;3.33;;
19735;SDS011;32064;49.310;8.646;2023-12-14T05:05:29;3.37;;;2.83;;
19735;SDS011;32064;49.310;8.646;2023-12-14T05:07:55;7.77;;;2.77;;
19735;SDS011;32064;49.310;8.646;2023-12-14T05:10:20;3.87;;;2.90;;
19735;SDS011;32064;49.310;8.646;2023-12-14T05:12:45;3.87;;;3.10;;
19735;SDS011;32064;49.310;8.646;2023-12-14T05:15:11;2.63;;;2.37;;
19735;SDS011;32064;49.310;8.646;2023-12-14T05:17:36;3.47;;;3.13;;
19735;SDS011;32064;49.310;8.646;2023-12-14T05:20:07;2.30;;;2.10;;
19735;SDS011;32064;49.310;8.646;2023-12-14T05:22:33;2.87;;;2.63;;
19735;SDS011;32064;49.310;8.646;2023-12-14T05:24:58;2.87;;;2.63;;
19735;SDS011;32064;49.310;8.646;2023-12-14T05:27:24;4.10;;;3.23;;
19735;SDS011;32064;49.310;8.646;2023-12-14T05:29:50;2.57;;;2.37;;
19735;SDS011;32064;49.310;8.646;2023-12-14T05:32:15;3.07;;;2.53;;
19735;SDS011;32064;49.310;8.646;2023-12-14T05:34:40;4.70;;;2.70;;
19735;SDS011;32064;49.310;8.646;2023-12-14T05:37:06;5.43;;;3.30;;
19735;SDS011;32064;49.310;8.646;2023-12-14T05:39:31;3.53;;;2.77;;
19735;SDS011;32064;49.310;8.646;2023-12-14T05:41:56;2.60;;;2.40;;
19735;SDS011;32064;49.310;8.646;2023-12-14T05:44:22;3.47;;;2.53;;
19735;SDS011;32064;49.310;8.646;2023-12-14T05:46:47;4.43;;;3.20;;
19735;SDS011;32064;49.310;8.646;2023-12-14T05:49:13;3.30;;;3.00;;
19735;SDS011;32064;49.310;8.646;2023-12-14T05:51:38;5.23;;;3.23;;
19735;SDS011;32064;49.310;8.646;2023-12-14T05:54:04;3.23;;;2.80;;
19735;SDS011;32064;49.310;8.646;2023-12-14T05:56:30;6.97;;;3.13;;
19735;SDS011;32064;49.310;8.646;2023-12-14T05:58:55;5.80;;;3.60;;
19735;SDS011;32064;49.310;8.646;2023-12-14T06:01:20;3.33;;;3.03;;
19735;SDS011;32064;49.310;8.646;2023-12-14T06:03:49;3.27;;;2.97;;
19735;SDS011;32064;49.310;8.646;2023-12-14T06:06:17;3.17;;;2.83;;
19735;SDS011;32064;49.310;8.646;2023-12-14T06:08:42;3.27;;;2.97;;
19735;SDS011;32064;49.310;8.646;2023-12-14T06:11:08;3.50;;;3.20;;
19735;SDS011;32064;49.310;8.646;2023-12-14T06:13:33;3.00;;;2.80;;
19735;SDS011;32064;49.310;8.646;2023-12-14T06:15:59;3.23;;;2.93;;
19735;SDS011;32064;49.310;8.646;2023-12-14T06:18:25;3.63;;;3.33;;
19735;SDS011;32064;49.310;8.646;2023-12-14T06:20:50;3.07;;;2.47;;
19735;SDS011;32064;49.310;8.646;2023-12-14T06:23:15;3.33;;;2.60;;
19735;SDS011;32064;49.310;8.646;2023-12-14T06:25:41;3.10;;;2.60;;
19735;SDS011;32064;49.310;8.646;2023-12-14T06:28:07;8.03;;;2.83;;
19735;SDS011;32064;49.310;8.646;2023-12-14T06:30:33;4.63;;;3.10;;
19735;SDS011;32064;49.310;8.646;2023-12-14T06:32:58;3.43;;;3.13;;
19735;SDS011;32064;49.310;8.646;2023-12-14T06:35:24;3.33;;;3.03;;
19735;SDS011;32064;49.310;8.646;2023-12-14T06:37:49;3.33;;;3.00;;
19735;SDS011;32064;49.310;8.646;2023-12-14T06:40:14;3.37;;;3.07;;
19735;SDS011;32064;49.310;8.646;2023-12-14T06:42:40;6.17;;;3.47;;
19735;SDS011;32064;49.310;8.646;2023-12-14T06:45:07;4.37;;;3.10;;
19735;SDS011;32064;49.310;8.646;2023-12-14T06:47:33;6.40;;;3.87;;
19735;SDS011;32064;49.310;8.646;2023-12-14T06:49:59;4.70;;;4.30;;
19735;SDS011;32064;49.310;8.646;2023-12-14T06:52:24;3.63;;;3.07;;
19735;SDS011;32064;49.310;8.646;2023-12-14T06:54:50;3.67;;;3.30;;
19735;SDS011;32064;49.310;8.646;2023-12-14T06:57:15;4.53;;;3.43;;
19735;SDS011;32064;49.310;8.646;2023-12-14T06:59:40;4.50;;;4.10;;
19735;SDS011;32064;49.310;8.646;2023-12-14T07:02:06;4.20;;;3.80;;
19735;SDS011;32064;49.310;8.646;2023-12-14T07:04:32;9.20;;;4.40;;
19735;SDS011;32064;49.310;8.646;2023-12-14T07:06:57;3.83;;;3.37;;
19735;SDS011;32064;49.310;8.646;2023-12-14T07:09:23;4.43;;;3.67;;
19735;SDS011;32064;49.310;8.646;2023-12-14T07:11:49;5.50;;;4.10;;
19735;SDS011;32064;49.310;8.646;2023-12-14T07:14:14;4.73;;;3.20;;
19735;SDS011;32064;49.310;8.646;2023-12-14T07:16:40;7.90;;;3.43;;
19735;SDS011;32064;49.310;8.646;2023-12-14T07:19:06;3.40;;;3.10;;
19735;SDS011;32064;49.310;8.646;2023-12-14T07:21:31;4.27;;;3.87;;
19735;SDS011;32064;49.310;8.646;2023-12-14T07:23:57;5.80;;;4.20;;
19735;SDS011;32064;49.310;8.646;2023-12-14T07:26:22;8.37;;;4.27;;
19735;SDS011;32064;49.310;8.646;2023-12-14T07:28:48;5.07;;;3.77;;
19735;SDS011;32064;49.310;8.646;2023-12-14T07:31:13;6.97;;;4.30;;
19735;SDS011;32064;49.310;8.646;2023-12-14T07:33:39;4.10;;;3.70;;
19735;SDS011;32064;49.310;8.646;2023-12-14T07:36:04;3.80;;;3.50;;
19735;SDS011;32064;49.310;8.646;2023-12-14T07:38:30;5.20;;;3.90;;
19735;SDS011;32064;49.310;8.646;2023-12-14T07:40:56;6.43;;;4.47;;
19735;SDS011;32064;49.310;8.646;2023-12-14T07:43:21;6.73;;;3.53;;
19735;SDS011;32064;49.310;8.646;2023-12-14T07:45:48;8.30;;;6.07;;
19735;SDS011;32064;49.310;8.646;2023-12-14T07:48:13;8.03;;;6.23;;
19735;SDS011;32064;49.310;8.646;2023-12-14T07:50:39;7.87;;;5.80;;
19735;SDS011;32064;49.310;8.646;2023-12-14T07:53:04;8.13;;;6.40;;
19735;SDS011;32064;49.310;8.646;2023-12-14T07:55:30;8.10;;;7.30;;
19735;SDS011;32064;49.310;8.646;2023-12-14T07:57:55;10.83;;;7.17;;
19735;SDS011;32064;49.310;8.646;2023-12-14T08:00:21;7.87;;;6.07;;
19735;SDS011;32064;49.310;8.646;2023-12-14T08:02:46;8.90;;;5.73;;
19735;SDS011;32064;49.310;8.646;2023-12-14T08:05:11;5.40;;;4.90;;
19735;SDS011;32064;49.310;8.646;2023-12-14T08:07:37;9.50;;;5.13;;
19735;SDS011;32064;49.310;8.646;2023-12-14T08:10:02;6.30;;;4.77;;
19735;SDS011;32064;49.310;8.646;2023-12-14T08:12:28;4.23;;;3.83;;
19735;SDS011;32064;49.310;8.646;2023-12-14T08:14:53;6.53;;;4.70;;
19735;SDS011;32064;49.310;8.646;2023-12-14T08:17:19;7.30;;;5.33;;
19735;SDS011;32064;49.310;8.646;2023-12-14T08:19:45;4.27;;;3.50;;
19735;SDS011;32064;49.310;8.646;2023-12-14T08:22:10;5.27;;;4.57;;
19735;SDS011;32064;49.310;8.646;2023-12-14T08:24:36;5.97;;;4.50;;
19735;SDS011;32064;49.310;8.646;2023-12-14T08:27:02;4.87;;;3.77;;
19735;SDS011;32064;49.310;8.646;2023-12-14T08:29:28;23.50;;;4.50;;
19735;SDS011;32064;49.310;8.646;2023-12-14T08:31:53;5.30;;;3.93;;
19735;SDS011;32064;49.310;8.646;2023-12-14T08:34:22;4.30;;;3.27;;
19735;SDS011;32064;49.310;8.646;2023-12-14T08:36:49;7.20;;;4.70;;
19735;SDS011;32064;49.310;8.646;2023-12-14T08:39:14;4.37;;;3.83;;
19735;SDS011;32064;49.310;8.646;2023-12-14T08:41:40;4.07;;;3.67;;
19735;SDS011;32064;49.310;8.646;2023-12-14T08:44:06;12.23;;;4.60;;
19735;SDS011;32064;49.310;8.646;2023-12-14T08:46:42;5.47;;;4.00;;
19735;SDS011;32064;49.310;8.646;2023-12-14T08:49:09;5.03;;;4.00;;
19735;SDS011;32064;49.310;8.646;2023-12-14T08:51:35;9.13;;;4.93;;
19735;SDS011;32064;49.310;8.646;2023-12-14T08:54:00;4.67;;;3.87;;
19735;SDS011;32064;49.310;8.646;2023-12-14T08:56:26;7.23;;;4.27;;
19735;SDS011;32064;49.310;8.646;2023-12-14T08:58:51;7.53;;;4.53;;
19735;SDS011;32064;49.310;8.646;2023-12-14T09:01:21;5.20;;;4.00;;
19735;SDS011;32064;49.310;8.646;2023-12-14T09:03:47;6.73;;;4.03;;
19735;SDS011;32064;49.310;8.646;2023-12-14T09:06:13;4.83;;;3.93;;
19735;SDS011;32064;49.310;8.646;2023-12-14T09:08:39;5.37;;;4.20;;
19735;SDS011;32064;49.310;8.646;2023-12-14T09:11:06;6.97;;;3.73;;
19735;SDS011;32064;49.310;8.646;2023-12-14T09:13:31;17.90;;;3.70;;
19735;SDS011;32064;49.310;8.646;2023-12-14T09:15:57;7.50;;;3.60;;
19735;SDS011;32064;49.310;8.646;2023-12-14T09:18:22;5.67;;;4.07;;
19735;SDS011;32064;49.310;8.646;2023-12-14T09:20:48;3.93;;;3.50;;
19735;SDS011;32064;49.310;8.646;2023-12-14T09:23:17;4.63;;;3.40;;
19735;SDS011;32064;49.310;8.646;2023-12-14T09:25:44;3.77;;;3.43;;
19735;SDS011;32064;49.310;8.646;2023-12-14T09:28:09;4.53;;;3.57;;
19735;SDS011;32064;49.310;8.646;2023-12-14T09:30:34;5.87;;;3.97;;
19735;SDS011;32064;49.310;8.646;2023-12-14T09:33:00;10.63;;;4.00;;
19735;SDS011;32064;49.310;8.646;2023-12-14T09:35:25;8.87;;;4.87;;
19735;SDS011;32064;49.310;8.646;2023-12-14T09:37:51;4.63;;;4.13;;
19735;SDS011;32064;49.310;8.646;2023-12-14T09:40:17;4.07;;;3.67;;
19735;SDS011;32064;49.310;8.646;2023-12-14T09:42:43;3.27;;;2.97;;
19735;SDS011;32064;49.310;8.646;2023-12-14T09:45:09;4.13;;;3.43;;
19735;SDS011;32064;49.310;8.646;2023-12-14T09:47:36;4.50;;;3.93;;
19735;SDS011;32064;49.310;8.646;2023-12-14T09:50:03;5.22;;;3.42;;
19735;SDS011;32064;49.310;8.646;2023-12-14T09:52:29;8.33;;;4.73;;
19735;SDS011;32064;49.310;8.646;2023-12-14T09:54:54;7.10;;;5.00;;
19735;SDS011;32064;49.310;8.646;2023-12-14T09:57:20;6.13;;;5.07;;
19735;SDS011;32064;49.310;8.646;2023-12-14T09:59:52;4.70;;;4.20;;
19735;SDS011;32064;49.310;8.646;2023-12-14T10:02:18;4.07;;;3.67;;
19735;SDS011;32064;49.310;8.646;2023-12-14T10:04:43;7.10;;;3.87;;
19735;SDS011;32064;49.310;8.646;2023-12-14T10:07:09;5.97;;;4.10;;
19735;SDS011;32064;49.310;8.646;2023-12-14T10:09:35;9.53;;;3.37;;
19735;SDS011;32064;49.310;8.646;2023-12-14T10:12:06;6.03;;;3.70;;
19735;SDS011;32064;49.310;8.646;2023-12-14T10:14:33;4.77;;;3.67;;
19735;SDS011;32064;49.310;8.646;2023-12-14T10:16:59;4.13;;;3.30;;
19735;SDS011;32064;49.310;8.646;2023-12-14T10:19:42;4.40;;;3.37;;
19735;SDS011;32064;49.310;8.646;2023-12-14T10:22:08;3.47;;;3.17;;
19735;SDS011;32064;49.310;8.646;2023-12-14T10:24:34;3.30;;;3.00;;
19735;SDS011;32064;49.310;8.646;2023-12-14T10:27:00;4.23;;;3.33;;
19735;SDS011;32064;49.310;8.646;2023-12-14T10:29:32;3.70;;;3.40;;
19735;SDS011;32064;49.310;8.646;2023-12-14T10:31:58;6.60;;;3.05;;
19735;SDS011;32064;49.310;8.646;2023-12-14T10:34:24;3.37;;;3.07;;
19735;SDS011;32064;49.310;8.646;2023-12-14T10:36:49;3.47;;;3.17;;
19735;SDS011;32064;49.310;8.646;2023-12-14T10:39:14;4.07;;;3.13;;
19735;SDS011;32064;49.310;8.646;2023-12-14T10:41:41;5.43;;;3.60;;
19735;SDS011;32064;49.310;8.646;2023-12-14T10:44:09;3.17;;;2.88;;
19735;SDS011;32064;49.310;8.646;2023-12-14T10:46:35;3.67;;;3.20;;
19735;SDS011;32064;49.310;8.646;2023-12-14T10:49:01;3.80;;;3.40;;
19735;SDS011;32064;49.310;8.646;2023-12-14T10:51:27;5.50;;;3.97;;
19735;SDS011;32064;49.310;8.646;2023-12-14T10:53:53;7.53;;;4.57;;
19735;SDS011;32064;49.310;8.646;2023-12-14T10:56:19;4.40;;;3.87;;
19735;SDS011;32064;49.310;8.646;2023-12-14T11:01:13;3.43;;;3.10;;
19735;SDS011;32064;49.310;8.646;2023-12-14T11:03:40;4.33;;;3.20;;
19735;SDS011;32064;49.310;8.646;2023-12-14T11:09:06;8.07;;;3.30;;
19735;SDS011;32064;49.310;8.646;2023-12-14T11:11:42;3.08;;;2.65;;
19735;SDS011;32064;49.310;8.646;2023-12-14T11:14:18;3.97;;;3.20;;
19735;SDS011;32064;49.310;8.646;2023-12-14T11:16:44;4.63;;;3.33;;
19735;SDS011;32064;49.310;8.646;2023-12-14T11:21:45;5.90;;;3.73;;
19735;SDS011;32064;49.310;8.646;2023-12-14T11:24:11;3.40;;;3.07;;
19735;SDS011;32064;49.310;8.646;2023-12-14T11:26:37;3.90;;;3.60;;
19735;SDS011;32064;49.310;8.646;2023-12-14T11:29:12;6.27;;;3.97;;
19735;SDS011;32064;49.310;8.646;2023-12-14T11:31:41;3.23;;;2.93;;
19735;SDS011;32064;49.310;8.646;2023-12-14T11:34:06;3.90;;;3.13;;
19735;SDS011;32064;49.310;8.646;2023-12-14T11:36:32;3.90;;;3.07;;
19735;SDS011;32064;49.310;8.646;2023-12-14T11:38:58;3.65;;;3.35;;
19735;SDS011;32064;49.310;8.646;2023-12-14T11:41:23;7.40;;;3.53;;
19735;SDS011;32064;49.310;8.646;2023-12-14T11:43:50;4.97;;;3.63;;
19735;SDS011;32064;49.310;8.646;2023-12-14T11:46:16;3.63;;;2.87;;
19735;SDS011;32064;49.310;8.646;2023-12-14T11:48:45;3.20;;;2.90;;
19735;SDS011;32064;49.310;8.646;2023-12-14T11:51:11;6.97;;;3.80;;
19735;SDS011;32064;49.310;8.646;2023-12-14T11:53:37;3.33;;;2.80;;
19735;SDS011;32064;49.310;8.646;2023-12-14T11:56:04;3.65;;;3.35;;
19735;SDS011;32064;49.310;8.646;2023-12-14T11:58:31;4.93;;;3.03;;
19735;SDS011;32064;49.310;8.646;2023-12-14T12:01:10;4.03;;;3.03;;
19735;SDS011;32064;49.310;8.646;2023-12-14T12:03:46;3.08;;;2.63;;
19735;SDS011;32064;49.310;8.646;2023-12-14T12:06:24;4.30;;;3.07;;
19735;SDS011;32064;49.310;8.646;2023-12-14T12:08:52;3.73;;;3.40;;
19735;SDS011;32064;49.310;8.646;2023-12-14T12:11:19;3.57;;;3.00;;
19735;SDS011;32064;49.310;8.646;2023-12-14T12:13:52;4.40;;;2.90;;
19735;SDS011;32064;49.310;8.646;2023-12-14T12:16:18;5.38;;;2.95;;
19735;SDS011;32064;49.310;8.646;2023-12-14T12:18:43;4.73;;;2.70;;
19735;SDS011;32064;49.310;8.646;2023-12-14T12:21:10;2.80;;;2.43;;
19735;SDS011;32064;49.310;8.646;2023-12-14T12:23:36;5.17;;;3.50;;
19735;SDS011;32064;49.310;8.646;2023-12-14T12:26:02;2.70;;;2.50;;
19735;SDS011;32064;49.310;8.646;2023-12-14T12:28:27;3.57;;;3.17;;
19735;SDS011;32064;49.310;8.646;2023-12-14T12:30:54;3.70;;;3.17;;
19735;SDS011;32064;49.310;8.646;2023-12-14T12:33:20;6.63;;;3.70;;
19735;SDS011;32064;49.310;8.646;2023-12-14T12:35:46;4.00;;;3.03;;
19735;SDS011;32064;49.310;8.646;2023-12-14T12:38:11;4.50;;;3.83;;
19735;SDS011;32064;49.310;8.646;2023-12-14T12:40:37;3.47;;;3.13;;
19735;SDS011;32064;49.310;8.646;2023-12-14T12:43:02;2.77;;;2.57;;
19735;SDS011;32064;49.310;8.646;2023-12-14T12:45:28;3.43;;;3.13;;
19735;SDS011;32064;49.310;8.646;2023-12-14T12:47:54;5.00;;;2.87;;
19735;SDS011;32064;49.310;8.646;2023-12-14T12:50:19;4.15;;;3.20;;
19735;SDS011;32064;49.310;8.646;2023-12-14T12:52:45;3.53;;;3.23;;
19735;SDS011;32064;49.310;8.646;2023-12-14T12:55:13;3.67;;;3.30;;
19735;SDS011;32064;49.310;8.646;2023-12-14T12:57:39;3.77;;;3.03;;
19735;SDS011;32064;49.310;8.646;2023-12-14T13:00:07;3.28;;;2.97;;
19735;SDS011;32064;49.310;8.646;2023-12-14T13:02:36;5.77;;;4.13;;
19735;SDS011;32064;49.310;8.646;2023-12-14T13:05:08;5.35;;;3.35;;
19735;SDS011;32064;49.310;8.646;2023-12-14T13:07:35;5.13;;;3.70;;
19735;SDS011;32064;49.310;8.646;2023-12-14T13:10:02;4.87;;;3.40;;
19735;SDS011;32064;49.310;8.646;2023-12-14T13:12:28;6.47;;;3.53;;
19735;SDS011;32064;49.310;8.646;2023-12-14T13:14:54;5.03;;;3.10;;
19735;SDS011;32064;49.310;8.646;2023-12-14T13:17:19;4.03;;;2.93;;
19735;SDS011;32064;49.310;8.646;2023-12-14T13:19:45;3.57;;;3.17;;
19735;SDS011;32064;49.310;8.646;2023-12-14T13:22:10;4.20;;;3.67;;
19735;SDS011;32064;49.310;8.646;2023-12-14T13:24:36;6.80;;;3.57;;
19735;SDS011;32064;49.310;8.646;2023-12-14T13:27:02;7.60;;;3.60;;
19735;SDS011;32064;49.310;8.646;2023-12-14T13:29:28;3.40;;;3.10;;
19735;SDS011;32064;49.310;8.646;2023-12-14T13:31:56;9.40;;;3.50;;
19735;SDS011;32064;49.310;8.646;2023-12-14T13:34:21;12.53;;;4.13;;
19735;SDS011;32064;49.310;8.646;2023-12-14T13:36:46;6.10;;;3.93;;
19735;SDS011;32064;49.310;8.646;2023-12-14T13:39:12;4.50;;;3.57;;
19735;SDS011;32064;49.310;8.646;2023-12-14T13:41:37;3.83;;;3.47;;
19735;SDS011;32064;49.310;8.646;2023-12-14T13:44:03;5.77;;;3.27;;
19735;SDS011;32064;49.310;8.646;2023-12-14T13:46:28;3.53;;;3.13;;
19735;SDS011;32064;49.310;8.646;2023-12-14T13:48:54;3.97;;;3.30;;
19735;SDS011;32064;49.310;8.646;2023-12-14T13:51:19;5.80;;;3.90;;
19735;SDS011;32064;49.310;8.646;2023-12-14T13:53:45;3.20;;;2.90;;
19735;SDS011;32064;49.310;8.646;2023-12-14T13:56:10;5.37;;;3.33;;
19735;SDS011;32064;49.310;8.646;2023-12-14T13:58:35;5.73;;;3.50;;
19735;SDS011;32064;49.310;8.646;2023-12-14T14:01:03;3.50;;;3.20;;
19735;SDS011;32064;49.310;8.646;2023-12-14T14:03:32;4.00;;;3.40;;
19735;SDS011;32064;49.310;8.646;2023-12-14T14:05:58;4.63;;;2.90;;
19735;SDS011;32064;49.310;8.646;2023-12-14T14:08:24;4.43;;;3.67;;
19735;SDS011;32064;49.310;8.646;2023-12-14T14:10:49;3.97;;;3.03;;
19735;SDS011;32064;49.310;8.646;2023-12-14T14:13:15;4.37;;;3.70;;
19735;SDS011;32064;49.310;8.646;2023-12-14T14:15:40;6.37;;;3.40;;
19735;SDS011;32064;49.310;8.646;2023-12-14T14:18:06;5.03;;;3.30;;
19735;SDS011;32064;49.310;8.646;2023-12-14T14:20:31;7.87;;;3.87;;
19735;SDS011;32064;49.310;8.646;2023-12-14T14:22:56;3.57;;;2.97;;
19735;SDS011;32064;49.310;8.646;2023-12-14T14:25:24;3.63;;;3.30;;
19735;SDS011;32064;49.310;8.646;2023-12-14T14:27:50;4.17;;;3.37;;
19735;SDS011;32064;49.310;8.646;2023-12-14T14:30:18;4.10;;;3.60;;
19735;SDS011;32064;49.310;8.646;2023-12-14T14:32:43;3.63;;;3.27;;
19735;SDS011;32064;49.310;8.646;2023-12-14T14:35:10;3.00;;;2.70;;
19735;SDS011;32064;49.310;8.646;2023-12-14T14:37:36;3.37;;;3.07;;
19735;SDS011;32064;49.310;8.646;2023-12-14T14:40:01;5.07;;;3.93;;
19735;SDS011;32064;49.310;8.646;2023-12-14T14:42:29;5.70;;;3.63;;
19735;SDS011;32064;49.310;8.646;2023-12-14T14:44:55;4.63;;;3.60;;
19735;SDS011;32064;49.310;8.646;2023-12-14T14:47:20;4.40;;;3.00;;
19735;SDS011;32064;49.310;8.646;2023-12-14T14:49:47;7.23;;;3.50;;